Time;durP1;ratioP1;P1;durP2;ratioP2;P2;SDS_P1;SDS_P2;PMS_P1;PMS_P2;Temp;Humidity;BMP_temperature;BMP_pressure;BME280_temperature;BME280_humidity;BME280_pressure;Samples;Min_cycle;Max_cycle;Signal;HPM_P1;HPM_P2
2022/06/06 00:01:10;;;;;;;8.50;3.00;;;;;;;;;;5089230;28;20032;-70
2022/06/06 00:03:36;;;;;;;8.60;2.57;;;;;;;;;;5089483;28;20035;-69
2022/06/06 00:06:08;;;;;;;11.10;2.60;;;;;;;;;;5085990;28;20028;-70
2022/06/06 00:08:34;;;;;;;3.97;2.00;;;;;;;;;;5073406;28;20035;-69
2022/06/06 00:11:04;;;;;;;4.17;2.00;;;;;;;;;;5066683;28;20112;-69
2022/06/06 00:13:31;;;;;;;7.53;2.33;;;;;;;;;;5070903;28;20481;-72
2022/06/06 00:15:59;;;;;;;5.10;2.70;;;;;;;;;;5091898;28;20032;-71
2022/06/06 00:18:25;;;;;;;6.17;2.40;;;;;;;;;;5090993;28;20082;-72
2022/06/06 00:20:52;;;;;;;5.47;2.33;;;;;;;;;;5091687;28;20012;-71
2022/06/06 00:23:19;;;;;;;5.03;2.20;;;;;;;;;;5091682;28;20058;-71
2022/06/06 00:25:46;;;;;;;5.63;2.40;;;;;;;;;;5093609;28;20042;-71
2022/06/06 00:28:12;;;;;;;5.17;2.60;;;;;;;;;;5083545;28;20030;-71
2022/06/06 00:30:39;;;;;;;4.10;2.60;;;;;;;;;;5069607;28;20028;-70
2022/06/06 00:35:50;;;;;;;;;;;;;;;;;;5071506;28;20082;-69
2022/06/06 00:38:17;;;;;;;8.10;2.97;;;;;;;;;;5087883;28;20256;-69
2022/06/06 00:40:48;;;;;;;6.97;2.50;;;;;;;;;;5095113;28;20016;-69
2022/06/06 00:43:15;;;;;;;4.03;2.10;;;;;;;;;;5094379;28;20041;-69
2022/06/06 00:45:41;;;;;;;10.73;2.57;;;;;;;;;;5094997;28;20102;-69
2022/06/06 00:48:17;;;;;;;5.00;2.87;;;;;;;;;;5092762;28;20024;-69
2022/06/06 00:50:58;;;;;;;7.90;2.60;;;;;;;;;;5089267;28;20347;-69
2022/06/06 00:53:33;;;;;;;5.03;2.40;;;;;;;;;;5089154;28;20028;-69
2022/06/06 00:56:02;;;;;;;6.05;3.00;;;;;;;;;;5089092;28;20050;-70
2022/06/06 00:58:30;;;;;;;8.47;2.83;;;;;;;;;;5090753;28;20028;-69
2022/06/06 01:00:57;;;;;;;7.27;2.70;;;;;;;;;;5094810;28;20099;-69
2022/06/06 01:03:25;;;;;;;5.40;2.60;;;;;;;;;;5093838;28;20021;-69
2022/06/06 01:05:53;;;;;;;7.00;2.97;;;;;;;;;;5093732;28;20028;-69
2022/06/06 01:08:21;;;;;;;8.17;3.10;;;;;;;;;;5086553;28;20114;-69
2022/06/06 01:10:48;;;;;;;7.83;3.43;;;;;;;;;;5091819;28;20074;-70
2022/06/06 01:13:15;;;;;;;10.47;3.40;;;;;;;;;;5089288;28;20028;-69
2022/06/06 01:15:54;;;;;;;5.23;3.63;;;;;;;;;;5088708;28;20394;-69
2022/06/06 01:18:31;;;;;;;7.03;2.67;;;;;;;;;;5088167;28;20032;-69
2022/06/06 01:21:16;;;;;;;8.33;3.17;;;;;;;;;;5091116;28;20062;-69
2022/06/06 01:23:55;;;;;;;7.17;3.03;;;;;;;;;;5093222;28;20474;-69
2022/06/06 01:26:32;;;;;;;10.10;3.33;;;;;;;;;;5093410;28;20085;-68
2022/06/06 01:29:05;;;;;;;11.50;3.60;;;;;;;;;;5091842;28;20095;-70
2022/06/06 01:31:36;;;;;;;7.73;3.37;;;;;;;;;;5093194;28;20027;-69
2022/06/06 01:34:04;;;;;;;7.00;3.47;;;;;;;;;;5090069;28;20016;-69
2022/06/06 01:36:32;;;;;;;6.17;2.77;;;;;;;;;;5087676;28;20033;-71
2022/06/06 01:39:00;;;;;;;11.37;2.67;;;;;;;;;;5088160;28;20471;-69
2022/06/06 01:41:26;;;;;;;7.00;2.60;;;;;;;;;;5088593;28;20453;-69
2022/06/06 01:43:58;;;;;;;8.47;2.70;;;;;;;;;;5091057;28;20020;-69
2022/06/06 01:46:30;;;;;;;7.83;3.43;;;;;;;;;;5093741;28;20050;-69
2022/06/06 01:48:57;;;;;;;7.20;3.27;;;;;;;;;;5093423;28;20024;-69
2022/06/06 01:51:28;;;;;;;6.37;3.10;;;;;;;;;;5093283;28;20078;-69
2022/06/06 01:53:55;;;;;;;10.40;2.97;;;;;;;;;;5093461;28;20028;-69
2022/06/06 01:56:27;;;;;;;7.43;3.70;;;;;;;;;;5089817;28;20386;-69
2022/06/06 01:58:53;;;;;;;10.47;2.93;;;;;;;;;;5088141;28;20032;-69
2022/06/06 02:01:20;;;;;;;5.90;2.90;;;;;;;;;;5088102;28;20032;-69
2022/06/06 02:03:47;;;;;;;4.80;2.90;;;;;;;;;;5087951;28;20024;-71
2022/06/06 02:06:14;;;;;;;8.87;3.30;;;;;;;;;;5091149;28;20024;-71
2022/06/06 02:08:42;;;;;;;7.03;3.23;;;;;;;;;;5092866;28;20077;-71
2022/06/06 02:11:10;;;;;;;7.23;3.30;;;;;;;;;;5092919;28;20580;-71
2022/06/06 02:13:37;;;;;;;6.13;3.17;;;;;;;;;;5091852;28;20020;-71
2022/06/06 02:16:04;;;;;;;8.73;3.23;;;;;;;;;;5093059;28;20024;-71
2022/06/06 02:18:31;;;;;;;10.10;3.80;;;;;;;;;;5090126;28;20382;-71
2022/06/06 02:20:57;;;;;;;8.40;3.70;;;;;;;;;;5086927;28;20024;-71
2022/06/06 02:23:24;;;;;;;9.10;3.60;;;;;;;;;;5087880;28;20028;-72
2022/06/06 02:25:50;;;;;;;6.77;3.47;;;;;;;;;;5086974;28;20031;-71
2022/06/06 02:28:18;;;;;;;5.13;3.43;;;;;;;;;;5089904;28;20024;-71
2022/06/06 02:30:45;;;;;;;10.20;4.47;;;;;;;;;;5092429;28;20483;-71
2022/06/06 02:33:12;;;;;;;7.83;3.63;;;;;;;;;;5092521;28;20032;-71
2022/06/06 02:35:40;;;;;;;7.53;3.93;;;;;;;;;;5092859;28;20035;-71
2022/06/06 02:38:07;;;;;;;8.17;3.80;;;;;;;;;;5092181;28;20467;-71
2022/06/06 02:40:34;;;;;;;16.23;4.40;;;;;;;;;;5090006;28;20035;-72
2022/06/06 02:43:01;;;;;;;9.43;4.33;;;;;;;;;;5086943;28;20055;-71
2022/06/06 02:45:28;;;;;;;10.10;4.30;;;;;;;;;;5087569;28;20131;-71
2022/06/06 02:47:56;;;;;;;9.70;4.27;;;;;;;;;;5086851;28;20028;-72
2022/06/06 02:50:25;;;;;;;8.23;4.50;;;;;;;;;;5081113;28;20487;-70
2022/06/06 02:52:52;;;;;;;8.00;4.63;;;;;;;;;;5090927;28;20031;-71
2022/06/06 02:55:18;;;;;;;8.33;4.00;;;;;;;;;;5092159;28;20039;-71
2022/06/06 02:57:46;;;;;;;8.27;4.63;;;;;;;;;;5091343;28;20513;-71
2022/06/06 03:00:15;;;;;;;6.97;4.17;;;;;;;;;;5092608;28;20047;-71
2022/06/06 03:02:42;;;;;;;5.57;4.00;;;;;;;;;;5088038;28;20032;-71
2022/06/06 03:05:09;;;;;;;5.83;3.77;;;;;;;;;;5081763;28;20073;-71
2022/06/06 03:07:43;;;;;;;8.50;3.87;;;;;;;;;;5086850;28;20466;-71
2022/06/06 03:10:15;;;;;;;6.13;4.37;;;;;;;;;;5077791;28;20467;-70
2022/06/06 03:12:58;;;;;;;10.43;5.00;;;;;;;;;;5085003;28;20031;-71
2022/06/06 03:15:40;;;;;;;9.87;4.53;;;;;;;;;;5091476;28;20040;-71
2022/06/06 03:21:12;;;;;;;7.37;4.73;;;;;;;;;;5090309;28;20556;-71
2022/06/06 03:23:39;;;;;;;9.93;4.10;;;;;;;;;;5077305;28;20044;-71
2022/06/06 03:26:13;;;;;;;11.53;5.17;;;;;;;;;;5087731;28;20059;-71
2022/06/06 03:28:49;;;;;;;13.25;5.53;;;;;;;;;;5087081;28;20039;-70
2022/06/06 03:31:35;;;;;;;9.90;4.70;;;;;;;;;;5086417;28;20047;-71
2022/06/06 03:34:14;;;;;;;10.80;5.30;;;;;;;;;;5086501;28;20111;-71
2022/06/06 03:36:50;;;;;;;11.23;5.27;;;;;;;;;;5091117;28;20032;-71
2022/06/06 03:39:35;;;;;;;9.43;5.20;;;;;;;;;;5090792;28;20065;-71
2022/06/06 03:42:11;;;;;;;6.38;4.13;;;;;;;;;;5092286;28;20036;-70
2022/06/06 03:44:49;;;;;;;16.13;5.83;;;;;;;;;;5091353;28;20028;-71
2022/06/06 03:47:16;;;;;;;7.20;4.93;;;;;;;;;;5085539;28;20474;-71
2022/06/06 03:50:01;;;;;;;13.77;5.37;;;;;;;;;;5085344;28;20111;-70
2022/06/06 03:52:27;;;;;;;;;;;;;;;;;;5086251;28;20027;-71
2022/06/06 03:55:10;;;;;;;10.37;5.93;;;;;;;;;;5071097;28;19905;-71
2022/06/06 03:57:38;;;;;;;8.67;6.23;;;;;;;;;;5069303;28;20044;-71
2022/06/06 04:00:11;;;;;;;9.20;6.30;;;;;;;;;;5095155;28;20020;-72
2022/06/06 04:02:39;;;;;;;10.45;6.15;;;;;;;;;;5095661;28;20065;-70
2022/06/06 04:05:07;;;;;;;11.80;6.40;;;;;;;;;;5094863;28;20031;-71
2022/06/06 04:07:34;;;;;;;13.60;7.40;;;;;;;;;;5095685;28;20166;-71
2022/06/06 04:10:01;;;;;;;8.67;6.73;;;;;;;;;;5090071;28;20017;-70
2022/06/06 04:12:37;;;;;;;14.13;8.23;;;;;;;;;;5070140;28;20109;-70
2022/06/06 04:15:16;;;;;;;8.90;7.33;;;;;;;;;;5070162;28;20021;-72
2022/06/06 04:17:42;;;;;;;8.23;6.40;;;;;;;;;;5089595;28;20494;-71
2022/06/06 04:20:30;;;;;;;9.73;7.03;;;;;;;;;;5092186;28;20024;-71
2022/06/06 04:23:12;;;;;;;13.83;7.10;;;;;;;;;;5095449;28;20025;-70
2022/06/06 04:25:57;;;;;;;10.50;5.47;;;;;;;;;;5093876;28;20030;-71
2022/06/06 04:28:33;;;;;;;9.32;5.45;;;;;;;;;;5094758;28;20081;-71
2022/06/06 04:31:00;;;;;;;9.17;6.00;;;;;;;;;;5094366;28;20130;-71
2022/06/06 04:33:36;;;;;;;8.63;5.20;;;;;;;;;;5090413;28;20024;-71
2022/06/06 04:36:06;;;;;;;8.00;5.20;;;;;;;;;;5089413;28;20068;-71
2022/06/06 04:38:45;;;;;;;7.83;5.60;;;;;;;;;;5089999;28;20382;-71
2022/06/06 04:41:24;;;;;;;7.77;4.90;;;;;;;;;;5089608;28;20103;-71
2022/06/06 04:43:53;;;;;;;9.13;4.80;;;;;;;;;;5093772;28;20027;-71
2022/06/06 04:46:27;;;;;;;8.20;5.00;;;;;;;;;;5094374;28;20032;-71
2022/06/06 04:48:54;;;;;;;7.47;4.97;;;;;;;;;;5094783;28;20477;-71
2022/06/06 04:51:22;;;;;;;8.17;5.03;;;;;;;;;;5094551;28;20085;-71
2022/06/06 04:53:51;;;;;;;11.03;5.17;;;;;;;;;;5094454;28;20106;-71
2022/06/06 04:56:19;;;;;;;8.87;4.60;;;;;;;;;;5088813;28;20127;-70
2022/06/06 04:58:47;;;;;;;13.07;5.17;;;;;;;;;;5088838;28;20024;-71
2022/06/06 05:01:15;;;;;;;6.50;4.63;;;;;;;;;;5088575;28;20475;-70
2022/06/06 05:03:42;;;;;;;10.80;5.17;;;;;;;;;;5089365;28;20024;-70
2022/06/06 05:06:27;;;;;;;7.03;4.67;;;;;;;;;;5089995;28;20024;-69
2022/06/06 05:09:12;;;;;;;8.57;5.00;;;;;;;;;;5094112;28;20016;-70
2022/06/06 05:11:53;;;;;;;8.48;3.83;;;;;;;;;;5094159;28;20020;-69
2022/06/06 05:14:20;;;;;;;5.97;3.90;;;;;;;;;;5094251;28;20077;-69
2022/06/06 05:16:49;;;;;;;10.73;4.67;;;;;;;;;;5091746;28;20063;-69
2022/06/06 05:19:22;;;;;;;6.60;4.00;;;;;;;;;;5088481;28;20028;-69
2022/06/06 05:22:12;;;;;;;7.37;4.07;;;;;;;;;;5088716;28;20036;-69
2022/06/06 05:24:45;;;;;;;9.00;4.60;;;;;;;;;;5075895;28;20109;-69
2022/06/06 05:27:19;;;;;;;7.30;4.13;;;;;;;;;;5090623;28;20093;-69
2022/06/06 05:30:01;;;;;;;7.50;4.30;;;;;;;;;;5094084;28;20020;-70
2022/06/06 05:32:38;;;;;;;7.57;4.47;;;;;;;;;;5094093;28;20017;-69
2022/06/06 05:35:23;;;;;;;10.03;4.30;;;;;;;;;;5093771;28;20470;-69
2022/06/06 05:37:56;;;;;;;5.93;3.70;;;;;;;;;;5073857;28;20103;-69
2022/06/06 05:40:35;;;;;;;7.17;4.30;;;;;;;;;;5068976;28;20025;-69
2022/06/06 05:43:11;;;;;;;9.67;4.17;;;;;;;;;;5068581;28;20368;-69
2022/06/06 05:45:56;;;;;;;11.00;5.23;;;;;;;;;;5070981;28;20024;-69
2022/06/06 05:48:22;;;;;;;;;;;;;;;;;;5089007;28;20032;-69
2022/06/06 05:51:07;;;;;;;7.17;4.53;;;;;;;;;;5093225;28;19911;-69
2022/06/06 05:53:40;;;;;;;6.60;4.30;;;;;;;;;;5093391;28;20084;-69
2022/06/06 05:56:16;;;;;;;9.63;4.63;;;;;;;;;;5093195;28;20036;-69
2022/06/06 05:58:53;;;;;;;10.30;4.93;;;;;;;;;;5093434;28;20020;-69
2022/06/06 06:01:43;;;;;;;7.90;4.60;;;;;;;;;;5091941;28;20020;-69
2022/06/06 06:04:28;;;;;;;9.03;4.60;;;;;;;;;;5059435;28;20502;-69
2022/06/06 06:07:13;;;;;;;10.52;4.15;;;;;;;;;;5087771;28;20515;-69
2022/06/06 06:09:55;;;;;;;6.55;4.45;;;;;;;;;;5088278;28;20020;-69
2022/06/06 06:12:39;;;;;;;7.83;4.87;;;;;;;;;;5091338;28;20020;-69
2022/06/06 06:15:12;;;;;;;7.97;4.68;;;;;;;;;;5093182;28;20067;-68
2022/06/06 06:17:40;;;;;;;6.50;4.27;;;;;;;;;;5093157;28;20375;-69
2022/06/06 06:20:11;;;;;;;10.73;3.83;;;;;;;;;;5093217;28;20107;-69
2022/06/06 06:22:52;;;;;;;6.73;4.33;;;;;;;;;;5092832;28;20027;-69
2022/06/06 06:25:20;;;;;;;7.77;3.70;;;;;;;;;;5088021;28;20506;-69
2022/06/06 06:27:47;;;;;;;7.03;4.83;;;;;;;;;;5087076;28;20024;-69
2022/06/06 06:30:14;;;;;;;9.77;3.87;;;;;;;;;;5087421;28;20107;-69
2022/06/06 06:32:43;;;;;;;7.60;4.27;;;;;;;;;;5087787;28;20031;-69
2022/06/06 06:35:12;;;;;;;11.83;4.70;;;;;;;;;;5091791;28;20039;-69
2022/06/06 06:37:57;;;;;;;11.20;5.07;;;;;;;;;;5092423;28;20042;-69
2022/06/06 06:40:35;;;;;;;6.47;3.95;;;;;;;;;;5092632;28;20107;-69
2022/06/06 06:43:02;;;;;;;7.57;4.60;;;;;;;;;;5093036;28;20506;-69
2022/06/06 06:45:42;;;;;;;6.17;4.20;;;;;;;;;;5092410;28;20411;-70
2022/06/06 06:48:13;;;;;;;9.97;4.83;;;;;;;;;;5087121;28;20036;-69
2022/06/06 06:50:47;;;;;;;7.93;4.00;;;;;;;;;;5087068;28;20020;-69
2022/06/06 06:53:22;;;;;;;6.47;4.53;;;;;;;;;;5087452;28;20032;-69
2022/06/06 06:55:49;;;;;;;5.80;4.33;;;;;;;;;;5087367;28;20109;-69
2022/06/06 06:58:30;;;;;;;7.80;4.70;;;;;;;;;;5092471;28;20081;-69
2022/06/06 07:01:02;;;;;;;5.63;4.30;;;;;;;;;;5092476;28;20486;-69
2022/06/06 07:09:26;;;;;;;7.17;5.07;;;;;;;;;;5089216;28;20043;-69
2022/06/06 07:12:06;;;;;;;8.60;4.27;;;;;;;;;;5087147;28;20471;-69
2022/06/06 07:14:45;;;;;;;8.67;4.60;;;;;;;;;;5086685;28;20018;-69
2022/06/06 07:17:12;;;;;;;8.57;4.50;;;;;;;;;;5086639;28;20421;-68
2022/06/06 07:19:38;;;;;;;7.43;4.00;;;;;;;;;;5090645;28;20381;-68
2022/06/06 07:22:06;;;;;;;8.83;5.20;;;;;;;;;;5092161;28;20024;-68
2022/06/06 07:24:33;;;;;;;14.37;5.53;;;;;;;;;;5092373;28;20478;-68
2022/06/06 07:27:01;;;;;;;7.60;4.33;;;;;;;;;;5091727;28;20107;-67
2022/06/06 07:29:28;;;;;;;5.97;4.13;;;;;;;;;;5092155;28;20028;-68
2022/06/06 07:32:05;;;;;;;6.40;4.27;;;;;;;;;;5088457;28;20085;-68
2022/06/06 07:34:34;;;;;;;9.47;4.33;;;;;;;;;;5089669;28;20047;-68
2022/06/06 07:37:05;;;;;;;8.30;4.47;;;;;;;;;;5090604;28;20156;-67
2022/06/06 07:39:44;;;;;;;7.10;4.23;;;;;;;;;;5090781;28;20470;-68
2022/06/06 07:42:26;;;;;;;6.00;4.63;;;;;;;;;;5094944;28;20032;-68
2022/06/06 07:45:16;;;;;;;5.80;3.67;;;;;;;;;;5096521;28;20108;-67
2022/06/06 07:47:54;;;;;;;8.27;5.40;;;;;;;;;;5095622;28;20020;-68
2022/06/06 07:50:33;;;;;;;12.30;5.83;;;;;;;;;;5096282;28;20502;-67
2022/06/06 07:53:07;;;;;;;9.20;5.30;;;;;;;;;;5094968;28;20020;-67
2022/06/06 07:55:38;;;;;;;7.57;4.70;;;;;;;;;;5090373;28;20028;-68
2022/06/06 07:58:04;;;;;;;7.00;4.37;;;;;;;;;;5090216;28;20031;-67
2022/06/06 08:00:31;;;;;;;7.07;4.40;;;;;;;;;;5090707;28;20086;-67
2022/06/06 08:03:07;;;;;;;6.57;4.40;;;;;;;;;;5091157;28;20479;-67
2022/06/06 08:05:44;;;;;;;5.87;4.27;;;;;;;;;;5095822;28;20498;-67
2022/06/06 08:08:11;;;;;;;8.07;3.87;;;;;;;;;;5074995;28;20082;-67
2022/06/06 08:10:38;;;;;;;6.37;5.13;;;;;;;;;;5075548;28;20074;-67
2022/06/06 08:13:23;;;;;;;6.47;4.60;;;;;;;;;;5075229;28;20021;-67
2022/06/06 08:16:08;;;;;;;6.55;4.50;;;;;;;;;;5073969;28;20024;-67
2022/06/06 08:18:58;;;;;;;7.28;4.50;;;;;;;;;;5090382;28;20494;-67
2022/06/06 08:21:29;;;;;;;7.27;4.77;;;;;;;;;;5090102;28;20032;-67
2022/06/06 08:23:59;;;;;;;9.13;4.40;;;;;;;;;;5090177;28;20031;-67
2022/06/06 08:26:27;;;;;;;8.23;4.60;;;;;;;;;;5091790;28;20360;-67
2022/06/06 08:28:54;;;;;;;10.40;4.43;;;;;;;;;;5095335;28;20356;-67
2022/06/06 08:31:21;;;;;;;14.10;4.80;;;;;;;;;;5095151;28;20020;-67
2022/06/06 08:33:48;;;;;;;9.90;4.87;;;;;;;;;;5094956;28;20020;-67
2022/06/06 08:36:30;;;;;;;9.77;4.90;;;;;;;;;;5095098;28;20025;-67
2022/06/06 08:39:10;;;;;;;7.43;4.23;;;;;;;;;;5090927;28;20035;-67
2022/06/06 08:41:43;;;;;;;7.47;4.70;;;;;;;;;;5089909;28;20024;-67
2022/06/06 08:44:28;;;;;;;11.37;4.60;;;;;;;;;;5069153;28;20029;-67
2022/06/06 08:47:07;;;;;;;8.52;4.82;;;;;;;;;;5072162;28;20413;-67
2022/06/06 08:52:37;;;;;;;7.97;5.18;;;;;;;;;;5094861;28;20046;-67
2022/06/06 08:55:30;;;;;;;8.20;5.10;;;;;;;;;;5095082;28;20032;-67
2022/06/06 08:58:06;;;;;;;8.60;5.67;;;;;;;;;;5056548;28;20047;-67
2022/06/06 09:00:43;;;;;;;6.27;4.77;;;;;;;;;;5092442;28;20024;-67
2022/06/06 09:03:18;;;;;;;6.23;4.70;;;;;;;;;;5089415;28;20040;-67
2022/06/06 09:06:08;;;;;;;6.80;3.70;;;;;;;;;;5089036;28;20028;-67
2022/06/06 09:08:51;;;;;;;7.73;4.70;;;;;;;;;;5089118;28;20024;-67
2022/06/06 09:11:36;;;;;;;10.43;4.73;;;;;;;;;;5092586;28;20027;-67
2022/06/06 09:14:26;;;;;;;10.90;4.50;;;;;;;;;;5094539;28;20067;-67
2022/06/06 09:16:58;;;;;;;7.30;3.97;;;;;;;;;;5094038;28;20551;-68
2022/06/06 09:19:31;;;;;;;6.40;3.97;;;;;;;;;;5094466;28;20511;-68
2022/06/06 09:22:16;;;;;;;8.60;4.80;;;;;;;;;;5094051;28;20070;-67
2022/06/06 09:24:59;;;;;;;8.80;4.57;;;;;;;;;;5089281;28;20016;-68
2022/06/06 09:27:25;;;;;;;5.40;3.83;;;;;;;;;;5088547;28;20035;-67
2022/06/06 09:30:10;;;;;;;5.07;3.73;;;;;;;;;;5088742;28;20562;-68
2022/06/06 09:32:37;;;;;;;5.30;3.58;;;;;;;;;;5089865;28;20028;-68
2022/06/06 09:35:24;;;;;;;6.90;4.90;;;;;;;;;;5094126;28;20027;-67
2022/06/06 09:38:11;;;;;;;7.30;4.03;;;;;;;;;;5073705;28;20035;-67
2022/06/06 09:40:56;;;;;;;8.93;4.60;;;;;;;;;;5073353;28;20024;-68
2022/06/06 09:43:34;;;;;;;5.43;3.75;;;;;;;;;;5073781;28;20020;-67
2022/06/06 09:46:05;;;;;;;7.77;4.07;;;;;;;;;;5074760;28;20024;-68
2022/06/06 09:48:31;;;;;;;7.30;4.30;;;;;;;;;;5088331;28;20450;-67
2022/06/06 09:51:29;;;;;;;6.93;4.07;;;;;;;;;;5088502;28;20028;-67
2022/06/06 10:00:01;;;;;;;10.13;4.33;;;;;;;;;;5093254;28;20504;-68
2022/06/06 10:02:46;;;;;;;9.30;4.67;;;;;;;;;;5093257;28;20031;-68
2022/06/06 10:05:32;;;;;;;6.75;4.13;;;;;;;;;;5093517;28;20475;-68
2022/06/06 10:08:17;;;;;;;6.13;4.03;;;;;;;;;;5089655;28;20081;-67
2022/06/06 10:10:53;;;;;;;8.85;4.53;;;;;;;;;;5088122;28;20031;-67
2022/06/06 10:13:27;;;;;;;8.60;4.50;;;;;;;;;;5087665;28;20040;-67
2022/06/06 10:15:55;;;;;;;7.38;4.93;;;;;;;;;;5087540;28;20125;-67
2022/06/06 10:18:41;;;;;;;6.00;4.63;;;;;;;;;;5091650;28;20032;-67
2022/06/06 10:21:20;;;;;;;8.13;5.28;;;;;;;;;;5093463;28;20023;-67
2022/06/06 10:24:05;;;;;;;5.90;4.57;;;;;;;;;;5092907;28;20055;-67
2022/06/06 10:26:37;;;;;;;9.25;5.43;;;;;;;;;;5092929;28;20028;-67
2022/06/06 10:29:19;;;;;;;8.53;5.20;;;;;;;;;;5091851;28;20023;-67
2022/06/06 10:32:04;;;;;;;6.90;4.73;;;;;;;;;;5086685;28;20038;-67
2022/06/06 10:34:37;;;;;;;9.20;4.45;;;;;;;;;;5086644;28;20032;-67
2022/06/06 10:37:22;;;;;;;7.53;5.30;;;;;;;;;;5086778;28;20028;-67
2022/06/06 10:39:59;;;;;;;11.45;4.95;;;;;;;;;;5088551;28;20026;-67
2022/06/06 10:42:41;;;;;;;8.47;4.90;;;;;;;;;;5092193;28;20031;-67
2022/06/06 10:45:16;;;;;;;10.27;5.13;;;;;;;;;;5071894;28;20028;-67
2022/06/06 10:47:42;;;;;;;9.52;5.28;;;;;;;;;;5076394;28;20012;-67
2022/06/06 10:50:12;;;;;;;7.37;4.03;;;;;;;;;;5091546;28;20099;-67
2022/06/06 10:53:01;;;;;;;8.40;4.50;;;;;;;;;;5088960;28;20077;-67
2022/06/06 10:55:32;;;;;;;16.33;4.63;;;;;;;;;;5039640;28;20036;-67
2022/06/06 10:58:16;;;;;;;8.33;5.30;;;;;;;;;;5086425;28;20031;-67
2022/06/06 11:01:02;;;;;;;6.80;4.30;;;;;;;;;;5086375;28;20020;-67
2022/06/06 11:03:48;;;;;;;11.00;4.73;;;;;;;;;;5091345;28;20020;-67
2022/06/06 11:06:27;;;;;;;4.93;3.60;;;;;;;;;;5091858;28;20459;-67
2022/06/06 11:09:06;;;;;;;8.23;4.10;;;;;;;;;;5091227;28;20024;-67
2022/06/06 11:11:48;;;;;;;8.10;4.10;;;;;;;;;;5091661;28;20403;-67
2022/06/06 11:14:32;;;;;;;6.47;4.60;;;;;;;;;;5089977;28;20055;-67
2022/06/06 11:17:01;;;;;;;7.33;4.63;;;;;;;;;;5086288;28;20035;-66
2022/06/06 11:19:28;;;;;;;8.70;4.67;;;;;;;;;;5085868;28;20053;-66
2022/06/06 11:21:58;;;;;;;8.47;4.70;;;;;;;;;;5086189;28;20487;-67
2022/06/06 11:24:33;;;;;;;7.17;5.13;;;;;;;;;;5087757;28;20024;-67
2022/06/06 11:27:03;;;;;;;11.20;5.87;;;;;;;;;;5010453;28;2310486;-66
2022/06/06 11:29:35;;;;;;;8.00;4.83;;;;;;;;;;5092034;28;20126;-67
2022/06/06 11:32:11;;;;;;;9.50;5.03;;;;;;;;;;5092194;28;20025;-66
2022/06/06 11:34:50;;;;;;;7.30;5.13;;;;;;;;;;5092091;28;20154;-67
2022/06/06 11:37:29;;;;;;;11.17;5.07;;;;;;;;;;5089025;28;20071;-67
2022/06/06 11:40:02;;;;;;;13.83;5.00;;;;;;;;;;5066441;28;20127;-66
2022/06/06 11:42:57;;;;;;;7.70;5.20;;;;;;;;;;5066612;28;20107;-66
2022/06/06 11:45:24;;;;;;;;;;;;;;;;;;5029733;28;20065;-67
2022/06/06 11:48:02;;;;;;;11.90;5.80;;;;;;;;;;5074940;28;19916;-66
2022/06/06 11:50:48;;;;;;;7.63;5.10;;;;;;;;;;5091803;28;20078;-67
2022/06/06 11:53:33;;;;;;;9.60;4.70;;;;;;;;;;5092053;28;20024;-67
2022/06/06 11:56:10;;;;;;;9.13;4.45;;;;;;;;;;5091661;28;20031;-66
2022/06/06 11:58:39;;;;;;;8.57;4.57;;;;;;;;;;5090440;28;20024;-67
2022/06/06 12:01:12;;;;;;;10.30;5.10;;;;;;;;;;5086464;28;20039;-67
2022/06/06 12:03:57;;;;;;;8.57;5.47;;;;;;;;;;5086590;28;20028;-67
2022/06/06 12:06:42;;;;;;;8.43;5.93;;;;;;;;;;5086524;28;20036;-66
2022/06/06 12:09:17;;;;;;;13.85;6.45;;;;;;;;;;5087866;28;20543;-67
2022/06/06 12:12:06;;;;;;;9.30;6.22;;;;;;;;;;5092032;28;20352;-67
2022/06/06 12:14:33;;;;;;;9.03;6.63;;;;;;;;;;5091582;28;20024;-69
2022/06/06 12:17:12;;;;;;;9.53;6.40;;;;;;;;;;5091934;28;20329;-69
2022/06/06 12:19:41;;;;;;;25.80;7.53;;;;;;;;;;5092590;28;20039;-69
2022/06/06 12:22:14;;;;;;;21.23;9.47;;;;;;;;;;5091801;28;20020;-69
2022/06/06 12:24:44;;;;;;;9.13;6.43;;;;;;;;;;5089860;28;20039;-69
2022/06/06 12:27:17;;;;;;;9.33;6.40;;;;;;;;;;5089961;28;20503;-69
2022/06/06 12:29:53;;;;;;;9.27;6.30;;;;;;;;;;5089524;28;20058;-69
2022/06/06 12:32:38;;;;;;;11.13;5.43;;;;;;;;;;5093641;28;20031;-69
2022/06/06 12:35:08;;;;;;;9.82;5.97;;;;;;;;;;5095317;28;20055;-69
2022/06/06 12:37:38;;;;;;;12.13;6.53;;;;;;;;;;5094686;28;20058;-69
2022/06/06 12:40:26;;;;;;;10.73;6.23;;;;;;;;;;5095181;28;20020;-69
2022/06/06 12:43:17;;;;;;;9.27;6.83;;;;;;;;;;5094300;28;20054;-69
2022/06/06 12:46:01;;;;;;;11.37;6.90;;;;;;;;;;5089475;28;20028;-67
2022/06/06 12:48:36;;;;;;;31.27;10.05;;;;;;;;;;5089788;28;20022;-67
2022/06/06 12:51:23;;;;;;;11.20;6.50;;;;;;;;;;5089440;28;20132;-67
2022/06/06 12:54:08;;;;;;;9.87;6.90;;;;;;;;;;5091448;28;20390;-67
2022/06/06 12:56:45;;;;;;;14.55;7.00;;;;;;;;;;5094786;28;20028;-67
2022/06/06 12:59:27;;;;;;;10.47;6.90;;;;;;;;;;5095081;28;20509;-67
2022/06/06 13:01:56;;;;;;;9.07;6.70;;;;;;;;;;5093080;28;20024;-67
2022/06/06 13:04:35;;;;;;;8.73;6.83;;;;;;;;;;5093022;28;20036;-67
2022/06/06 13:07:21;;;;;;;8.97;6.53;;;;;;;;;;5090496;28;20047;-67
2022/06/06 13:09:47;;;;;;;7.65;5.60;;;;;;;;;;5089253;28;20475;-67
2022/06/06 13:12:23;;;;;;;9.77;7.00;;;;;;;;;;5089390;28;20107;-67
2022/06/06 13:14:50;;;;;;;12.50;7.80;;;;;;;;;;5088123;28;20016;-70
2022/06/06 13:17:17;;;;;;;37.20;17.07;;;;;;;;;;5093059;28;20044;-70
2022/06/06 13:19:56;;;;;;;42.57;20.40;;;;;;;;;;5093959;28;20079;-70
2022/06/06 13:22:29;;;;;;;37.50;18.00;;;;;;;;;;5094242;28;20154;-70
2022/06/06 13:25:14;;;;;;;31.27;16.03;;;;;;;;;;5093067;28;20030;-70
2022/06/06 13:27:41;;;;;;;28.23;14.75;;;;;;;;;;5093357;28;20137;-70
2022/06/06 13:30:22;;;;;;;16.13;9.43;;;;;;;;;;5088484;28;20020;-70
2022/06/06 13:33:01;;;;;;;21.43;11.73;;;;;;;;;;5088298;28;20581;-70
2022/06/06 13:35:30;;;;;;;17.13;10.67;;;;;;;;;;5087962;28;20158;-70
2022/06/06 13:38:06;;;;;;;16.00;9.23;;;;;;;;;;5089332;28;20047;-70
2022/06/06 13:40:37;;;;;;;24.27;13.03;;;;;;;;;;5093430;28;20419;-71
2022/06/06 13:43:09;;;;;;;19.80;10.00;;;;;;;;;;5093720;28;20051;-70
2022/06/06 13:45:39;;;;;;;16.63;9.97;;;;;;;;;;5092916;28;20038;-71
2022/06/06 13:48:15;;;;;;;21.03;10.47;;;;;;;;;;5093799;28;20022;-71
2022/06/06 13:50:51;;;;;;;20.70;11.23;;;;;;;;;;5090814;28;20071;-71
2022/06/06 13:53:18;;;;;;;17.23;10.20;;;;;;;;;;5088167;28;20408;-71
2022/06/06 13:55:44;;;;;;;14.70;8.47;;;;;;;;;;5087893;28;20111;-71
2022/06/06 13:58:17;;;;;;;11.60;7.53;;;;;;;;;;5087878;28;20028;-71
2022/06/06 14:01:05;;;;;;;12.20;8.03;;;;;;;;;;5089210;28;20027;-71
2022/06/06 14:03:49;;;;;;;15.67;8.30;;;;;;;;;;5093107;28;20487;-72
2022/06/06 14:06:34;;;;;;;9.53;6.30;;;;;;;;;;5093339;28;20020;-74
2022/06/06 14:09:02;;;;;;;10.63;6.30;;;;;;;;;;5092751;28;20024;-73
2022/06/06 14:11:31;;;;;;;13.27;7.07;;;;;;;;;;5089582;28;20028;-75
2022/06/06 14:14:00;;;;;;;12.07;6.33;;;;;;;;;;5088170;28;20116;-71
2022/06/06 14:16:26;;;;;;;12.43;6.10;;;;;;;;;;5086602;28;20074;-71
2022/06/06 14:18:55;;;;;;;10.37;5.33;;;;;;;;;;5087543;28;20402;-71
2022/06/06 14:21:24;;;;;;;8.33;5.40;;;;;;;;;;5087459;28;20032;-71
2022/06/06 14:23:50;;;;;;;8.03;5.30;;;;;;;;;;5090587;28;20020;-71
2022/06/06 14:26:21;;;;;;;8.03;4.83;;;;;;;;;;5092436;28;20470;-71
2022/06/06 14:29:02;;;;;;;7.90;5.30;;;;;;;;;;5093052;28;20059;-71
2022/06/06 14:31:47;;;;;;;7.50;4.70;;;;;;;;;;5092710;28;20035;-72
2022/06/06 14:34:13;;;;;;;;;;;;;;;;;;5093008;28;20024;-72
2022/06/06 14:36:42;;;;;;;9.60;4.43;;;;;;;;;;5087137;28;19916;-72
2022/06/06 14:39:24;;;;;;;22.77;5.80;;;;;;;;;;5086787;28;20020;-71
2022/06/06 14:41:51;;;;;;;8.10;5.03;;;;;;;;;;5086118;28;20077;-72
2022/06/06 14:44:31;;;;;;;7.30;4.40;;;;;;;;;;5087479;28;20591;-72
2022/06/06 14:47:08;;;;;;;12.03;5.50;;;;;;;;;;5092203;28;20030;-72
2022/06/06 14:49:36;;;;;;;10.00;5.47;;;;;;;;;;5091581;28;20020;-72
2022/06/06 14:52:23;;;;;;;9.23;6.00;;;;;;;;;;5074510;28;20821;-72
2022/06/06 14:54:56;;;;;;;9.20;5.23;;;;;;;;;;5091494;28;20487;-72
2022/06/06 14:57:25;;;;;;;10.67;5.57;;;;;;;;;;5090717;28;20645;-72
2022/06/06 14:59:53;;;;;;;8.90;5.03;;;;;;;;;;5087516;28;20375;-72
2022/06/06 15:02:21;;;;;;;8.17;5.27;;;;;;;;;;5086779;28;20035;-72
2022/06/06 15:04:48;;;;;;;14.53;5.00;;;;;;;;;;5080538;28;20032;-73
2022/06/06 15:07:18;;;;;;;6.83;4.33;;;;;;;;;;5068046;28;20021;-72
2022/06/06 15:09:53;;;;;;;6.80;4.43;;;;;;;;;;5084219;28;20076;-72
2022/06/06 15:12:25;;;;;;;7.60;4.83;;;;;;;;;;5088186;28;20483;-72
2022/06/06 15:15:17;;;;;;;7.67;4.83;;;;;;;;;;5084199;28;20028;-72
2022/06/06 15:17:46;;;;;;;8.73;4.50;;;;;;;;;;5089880;28;20052;-72
2022/06/06 15:20:19;;;;;;;7.10;4.22;;;;;;;;;;5073884;28;20056;-72
2022/06/06 15:22:47;;;;;;;7.35;4.55;;;;;;;;;;5085369;28;20086;-72
2022/06/06 15:25:24;;;;;;;5.53;4.18;;;;;;;;;;5083288;28;20025;-72
2022/06/06 15:27:54;;;;;;;6.88;4.85;;;;;;;;;;5077318;28;20032;-72
2022/06/06 15:30:27;;;;;;;6.80;4.47;;;;;;;;;;5072874;28;20067;-72
2022/06/06 15:33:19;;;;;;;6.95;3.70;;;;;;;;;;5076007;28;20528;-73
2022/06/06 15:35:56;;;;;;;8.25;4.32;;;;;;;;;;5080509;28;20017;-72
2022/06/06 15:38:23;;;;;;;6.40;4.35;;;;;;;;;;5086038;28;20028;-73
2022/06/06 15:41:06;;;;;;;8.77;4.50;;;;;;;;;;5085524;28;20077;-72
2022/06/06 15:43:43;;;;;;;6.50;4.20;;;;;;;;;;5078997;28;20035;-72